createdAt,value
2019-05-12T00:03:11.269Z,0
2019-05-12T00:13:11.969Z,0
2019-05-12T00:23:27.595Z,0
2019-05-12T00:33:31.686Z,0
2019-05-12T00:43:32.442Z,0
2019-05-12T00:53:43.409Z,0
2019-05-12T01:03:44.315Z,0
2019-05-12T01:13:45.052Z,0
2019-05-12T01:24:02.651Z,0
2019-05-12T01:34:04.388Z,0
2019-05-12T01:44:05.139Z,0
2019-05-12T01:54:14.920Z,0
2019-05-12T02:04:18.294Z,0
2019-05-12T02:14:19.051Z,0
2019-05-12T02:24:29.818Z,0
2019-05-12T02:34:31.357Z,0
2019-05-12T02:44:35.544Z,0
2019-05-12T02:54:56.763Z,0
2019-05-12T03:05:01.665Z,0
2019-05-12T03:15:06.590Z,0
2019-05-12T03:25:24.939Z,0
2019-05-12T03:35:43.417Z,0
2019-05-12T03:45:56.166Z,0
2019-05-12T03:55:56.952Z,0
2019-05-12T04:05:57.725Z,0
2019-05-12T04:15:58.581Z,0
2019-05-12T04:26:19.585Z,3900
2019-05-12T04:36:20.411Z,3900
2019-05-12T04:46:21.230Z,3900
2019-05-12T04:56:25.353Z,3900
2019-05-12T05:06:26.240Z,3900
2019-05-12T05:16:27.069Z,3850
2019-05-12T05:26:28.492Z,3850
2019-05-12T05:36:29.392Z,3850
2019-05-12T05:46:30.239Z,3800
2019-05-12T05:56:50.574Z,3550
2019-05-12T06:07:04.354Z,3250
2019-05-12T06:17:05.184Z,2950
2019-05-12T06:27:20.762Z,2650
2019-05-12T06:37:23.859Z,2350
2019-05-12T06:47:24.606Z,2050
2019-05-12T06:57:29.071Z,1750
2019-05-12T07:07:44.326Z,1550
2019-05-12T07:17:50.174Z,1350
2019-05-12T07:28:00.228Z,1250
2019-05-12T07:48:23.483Z,1150
2019-05-12T07:58:24.289Z,1100
2019-05-12T08:08:25.072Z,1050
2019-05-12T08:18:35.928Z,1000
2019-05-12T08:28:44.385Z,950
2019-05-12T08:38:45.304Z,900
2019-05-12T08:48:46.054Z,800
2019-05-12T08:58:53.895Z,750
2019-05-12T09:08:55.105Z,650
2019-05-12T09:18:55.839Z,550
2019-05-12T09:28:56.612Z,450
2019-05-12T09:39:02.925Z,400
2019-05-12T09:49:06.487Z,300
2019-05-12T09:59:22.401Z,0
2019-05-12T10:09:29.546Z,0
2019-05-12T10:19:30.337Z,0
2019-05-12T10:29:32.564Z,0
2019-05-12T10:39:33.732Z,0
2019-05-12T10:49:34.612Z,0
2019-05-12T10:59:47.871Z,0
2019-05-12T11:09:49.454Z,0
2019-05-12T11:19:54.208Z,0
2019-05-12T11:29:55.119Z,0
2019-05-12T11:39:55.964Z,0
2019-05-12T11:50:03.877Z,0
2019-05-12T12:00:10.392Z,0
2019-05-12T12:10:11.311Z,0
2019-05-12T12:20:24.091Z,0
2019-05-12T12:30:25.163Z,0
2019-05-12T12:40:28.963Z,0
2019-05-12T12:50:30.890Z,0
2019-05-12T13:00:47.790Z,0
2019-05-12T13:10:55.100Z,0
2019-05-12T13:20:58.293Z,0
2019-05-12T13:31:13.546Z,0
2019-05-12T13:41:20.244Z,0
2019-05-12T13:51:21.005Z,0
2019-05-12T14:01:21.884Z,0
2019-05-12T14:11:25.415Z,0
2019-05-12T14:21:26.151Z,0
2019-05-12T14:31:35.366Z,0
2019-05-12T14:41:52.968Z,0
2019-05-12T14:51:55.325Z,0
2019-05-12T15:02:00.007Z,0
2019-05-12T15:12:06.664Z,0
2019-05-12T15:22:14.102Z,0
2019-05-12T15:32:15.765Z,0
2019-05-12T15:42:16.539Z,0
2019-05-12T15:52:17.363Z,0
2019-05-12T16:02:18.131Z,0
2019-05-12T16:12:26.697Z,0
2019-05-12T16:22:36.075Z,0
2019-05-12T16:32:48.220Z,0
2019-05-12T16:42:59.112Z,0
2019-05-12T16:53:00.891Z,0
2019-05-12T17:03:04.022Z,0
2019-05-12T17:13:12.892Z,0
2019-05-12T17:23:16.589Z,0
2019-05-12T17:33:27.183Z,0
2019-05-12T17:43:28.597Z,0
2019-05-12T17:53:35.886Z,0
2019-05-12T18:03:44.790Z,0
2019-05-12T18:14:04.499Z,0
2019-05-12T18:24:13.444Z,0
2019-05-12T18:34:15.036Z,0
2019-05-12T18:44:31.032Z,0
2019-05-12T18:54:34.685Z,0
2019-05-12T19:04:41.207Z,0
2019-05-12T19:14:43.771Z,0
2019-05-12T19:24:44.796Z,0
2019-05-12T19:34:46.541Z,0
2019-05-12T19:44:47.295Z,0
2019-05-12T19:54:48.199Z,0
2019-05-12T20:04:55.834Z,0
2019-05-12T20:14:59.439Z,0
2019-05-12T20:25:00.243Z,0
2019-05-12T20:35:01.038Z,0
2019-05-12T20:45:05.427Z,0
2019-05-12T20:55:06.180Z,0
2019-05-12T21:05:19.176Z,0
2019-05-12T21:15:34.691Z,0
2019-05-12T21:25:53.175Z,0
2019-05-12T21:35:59.114Z,0
2019-05-12T21:46:10.784Z,0
2019-05-12T21:56:16.106Z,0
2019-05-12T22:06:24.739Z,0
2019-05-12T22:26:46.856Z,0
2019-05-12T22:36:59.121Z,0
2019-05-12T22:47:13.527Z,0
2019-05-12T22:57:18.307Z,0
2019-05-12T23:07:28.259Z,0
2019-05-12T23:17:30.671Z,0
2019-05-12T23:27:33.591Z,0
2019-05-12T23:37:40.215Z,0
2019-05-12T23:47:44.201Z,0
2019-05-12T23:57:44.946Z,0
